sensor_id;sensor_type;location;lat;lon;timestamp;temperature;humidity
21115;DHT22;10715;48.546;9.896;2022-08-21T00:00:38;11.30;99.90
21115;DHT22;10715;48.546;9.896;2022-08-21T00:03:06;11.30;99.90
21115;DHT22;10715;48.546;9.896;2022-08-21T00:05:35;11.30;99.90
21115;DHT22;10715;48.546;9.896;2022-08-21T00:08:02;11.20;99.90
21115;DHT22;10715;48.546;9.896;2022-08-21T00:10:28;11.20;99.90
21115;DHT22;10715;48.546;9.896;2022-08-21T00:12:54;11.20;99.90
21115;DHT22;10715;48.546;9.896;2022-08-21T00:15:25;11.10;99.90
21115;DHT22;10715;48.546;9.896;2022-08-21T00:17:52;11.10;99.90
21115;DHT22;10715;48.546;9.896;2022-08-21T00:20:18;11.10;99.90
21115;DHT22;10715;48.546;9.896;2022-08-21T00:22:44;11.10;99.90
21115;DHT22;10715;48.546;9.896;2022-08-21T00:25:11;11.00;99.90
21115;DHT22;10715;48.546;9.896;2022-08-21T00:27:37;11.00;99.90
21115;DHT22;10715;48.546;9.896;2022-08-21T00:30:05;11.00;99.90
21115;DHT22;10715;48.546;9.896;2022-08-21T00:32:31;11.00;99.90
21115;DHT22;10715;48.546;9.896;2022-08-21T00:34:57;11.00;99.90
21115;DHT22;10715;48.546;9.896;2022-08-21T00:37:23;11.00;99.90
21115;DHT22;10715;48.546;9.896;2022-08-21T00:39:48;11.00;99.90
21115;DHT22;10715;48.546;9.896;2022-08-21T00:42:15;11.00;99.90
21115;DHT22;10715;48.546;9.896;2022-08-21T00:44:45;11.00;99.90
21115;DHT22;10715;48.546;9.896;2022-08-21T00:47:11;11.00;99.90
21115;DHT22;10715;48.546;9.896;2022-08-21T00:49:38;11.00;99.90
21115;DHT22;10715;48.546;9.896;2022-08-21T00:52:07;11.00;99.90
21115;DHT22;10715;48.546;9.896;2022-08-21T00:54:33;10.90;99.90
21115;DHT22;10715;48.546;9.896;2022-08-21T00:57:03;10.90;99.90
21115;DHT22;10715;48.546;9.896;2022-08-21T00:59:33;10.90;99.90
21115;DHT22;10715;48.546;9.896;2022-08-21T01:02:00;10.90;99.90
21115;DHT22;10715;48.546;9.896;2022-08-21T01:04:26;10.90;99.90
21115;DHT22;10715;48.546;9.896;2022-08-21T01:06:52;10.90;99.90
21115;DHT22;10715;48.546;9.896;2022-08-21T01:09:18;10.80;99.90
21115;DHT22;10715;48.546;9.896;2022-08-21T01:11:45;10.80;99.90
21115;DHT22;10715;48.546;9.896;2022-08-21T01:14:12;10.80;99.90
21115;DHT22;10715;48.546;9.896;2022-08-21T01:16:39;10.80;99.90
21115;DHT22;10715;48.546;9.896;2022-08-21T01:19:07;10.80;99.90
21115;DHT22;10715;48.546;9.896;2022-08-21T01:21:33;10.70;99.90
21115;DHT22;10715;48.546;9.896;2022-08-21T01:23:59;10.70;99.90
21115;DHT22;10715;48.546;9.896;2022-08-21T01:26:28;10.70;99.90
21115;DHT22;10715;48.546;9.896;2022-08-21T01:29:07;10.60;99.90
21115;DHT22;10715;48.546;9.896;2022-08-21T01:31:35;10.60;99.90
21115;DHT22;10715;48.546;9.896;2022-08-21T01:34:02;10.50;99.90
21115;DHT22;10715;48.546;9.896;2022-08-21T01:36:28;10.40;99.90
21115;DHT22;10715;48.546;9.896;2022-08-21T01:38:55;10.40;99.90
21115;DHT22;10715;48.546;9.896;2022-08-21T01:41:21;10.30;99.90
21115;DHT22;10715;48.546;9.896;2022-08-21T01:43:47;10.30;99.90
21115;DHT22;10715;48.546;9.896;2022-08-21T01:46:13;10.30;99.90
21115;DHT22;10715;48.546;9.896;2022-08-21T01:48:39;10.30;99.90
21115;DHT22;10715;48.546;9.896;2022-08-21T01:51:07;10.20;99.90
21115;DHT22;10715;48.546;9.896;2022-08-21T01:53:34;10.20;99.90
21115;DHT22;10715;48.546;9.896;2022-08-21T01:56:05;10.20;99.90
21115;DHT22;10715;48.546;9.896;2022-08-21T01:58:31;10.20;99.90
21115;DHT22;10715;48.546;9.896;2022-08-21T02:00:57;10.20;99.90
21115;DHT22;10715;48.546;9.896;2022-08-21T02:03:22;10.20;99.90
21115;DHT22;10715;48.546;9.896;2022-08-21T02:05:48;10.20;99.90
21115;DHT22;10715;48.546;9.896;2022-08-21T02:08:14;10.20;99.90
21115;DHT22;10715;48.546;9.896;2022-08-21T02:10:39;10.20;99.90
21115;DHT22;10715;48.546;9.896;2022-08-21T02:13:06;10.20;99.90
21115;DHT22;10715;48.546;9.896;2022-08-21T02:15:32;10.20;99.90
21115;DHT22;10715;48.546;9.896;2022-08-21T02:18:00;10.20;99.90
21115;DHT22;10715;48.546;9.896;2022-08-21T02:20:30;10.20;99.90
21115;DHT22;10715;48.546;9.896;2022-08-21T02:22:56;10.10;99.90
21115;DHT22;10715;48.546;9.896;2022-08-21T02:25:24;10.10;99.90
21115;DHT22;10715;48.546;9.896;2022-08-21T02:27:50;10.10;99.90
21115;DHT22;10715;48.546;9.896;2022-08-21T02:30:25;10.10;99.90
21115;DHT22;10715;48.546;9.896;2022-08-21T02:32:52;10.00;99.90
21115;DHT22;10715;48.546;9.896;2022-08-21T02:35:18;10.00;99.90
21115;DHT22;10715;48.546;9.896;2022-08-21T02:37:53;10.00;99.90
21115;DHT22;10715;48.546;9.896;2022-08-21T02:40:23;10.00;99.90
21115;DHT22;10715;48.546;9.896;2022-08-21T02:42:50;10.00;99.90
21115;DHT22;10715;48.546;9.896;2022-08-21T02:45:16;10.00;99.90
21115;DHT22;10715;48.546;9.896;2022-08-21T02:47:57;9.90;99.90
21115;DHT22;10715;48.546;9.896;2022-08-21T02:50:27;9.90;99.90
21115;DHT22;10715;48.546;9.896;2022-08-21T02:52:54;9.90;99.90
21115;DHT22;10715;48.546;9.896;2022-08-21T02:55:22;9.90;99.90
21115;DHT22;10715;48.546;9.896;2022-08-21T02:57:49;9.80;99.90
21115;DHT22;10715;48.546;9.896;2022-08-21T03:00:16;9.90;99.90
21115;DHT22;10715;48.546;9.896;2022-08-21T03:02:42;9.80;99.90
21115;DHT22;10715;48.546;9.896;2022-08-21T03:05:09;9.80;99.90
21115;DHT22;10715;48.546;9.896;2022-08-21T03:07:36;9.80;99.90
21115;DHT22;10715;48.546;9.896;2022-08-21T03:10:03;9.70;99.90
21115;DHT22;10715;48.546;9.896;2022-08-21T03:12:29;9.70;99.90
21115;DHT22;10715;48.546;9.896;2022-08-21T03:14:55;9.70;99.90
21115;DHT22;10715;48.546;9.896;2022-08-21T03:17:21;9.70;99.90
21115;DHT22;10715;48.546;9.896;2022-08-21T03:19:47;9.60;99.90
21115;DHT22;10715;48.546;9.896;2022-08-21T03:22:12;9.60;99.90
21115;DHT22;10715;48.546;9.896;2022-08-21T03:24:38;9.60;99.90
21115;DHT22;10715;48.546;9.896;2022-08-21T03:27:04;9.60;99.90
21115;DHT22;10715;48.546;9.896;2022-08-21T03:29:29;9.60;99.90
21115;DHT22;10715;48.546;9.896;2022-08-21T03:31:55;9.50;99.90
21115;DHT22;10715;48.546;9.896;2022-08-21T03:34:21;9.50;99.90
21115;DHT22;10715;48.546;9.896;2022-08-21T03:36:48;9.50;99.90
21115;DHT22;10715;48.546;9.896;2022-08-21T03:39:15;9.50;99.90
21115;DHT22;10715;48.546;9.896;2022-08-21T03:41:41;9.40;99.90
21115;DHT22;10715;48.546;9.896;2022-08-21T03:44:07;9.40;99.90
21115;DHT22;10715;48.546;9.896;2022-08-21T03:46:32;9.40;99.90
21115;DHT22;10715;48.546;9.896;2022-08-21T03:48:58;9.40;99.90
21115;DHT22;10715;48.546;9.896;2022-08-21T03:51:24;9.30;99.90
21115;DHT22;10715;48.546;9.896;2022-08-21T03:53:49;9.30;99.90
21115;DHT22;10715;48.546;9.896;2022-08-21T03:56:15;9.30;99.90
21115;DHT22;10715;48.546;9.896;2022-08-21T03:58:42;9.30;99.90
21115;DHT22;10715;48.546;9.896;2022-08-21T04:01:08;9.30;99.90
21115;DHT22;10715;48.546;9.896;2022-08-21T04:03:36;9.30;99.90
21115;DHT22;10715;48.546;9.896;2022-08-21T04:06:02;9.30;99.90
21115;DHT22;10715;48.546;9.896;2022-08-21T04:08:28;9.20;99.90
21115;DHT22;10715;48.546;9.896;2022-08-21T04:10:55;9.20;99.90
21115;DHT22;10715;48.546;9.896;2022-08-21T04:13:22;9.20;99.90
21115;DHT22;10715;48.546;9.896;2022-08-21T04:15:48;9.20;99.90
21115;DHT22;10715;48.546;9.896;2022-08-21T04:18:14;9.20;99.90
21115;DHT22;10715;48.546;9.896;2022-08-21T04:20:42;9.20;99.90
21115;DHT22;10715;48.546;9.896;2022-08-21T04:23:09;9.10;99.90
21115;DHT22;10715;48.546;9.896;2022-08-21T04:25:35;9.10;99.90
21115;DHT22;10715;48.546;9.896;2022-08-21T04:28:01;9.00;99.90
21115;DHT22;10715;48.546;9.896;2022-08-21T04:30:27;9.00;99.90
21115;DHT22;10715;48.546;9.896;2022-08-21T04:32:53;9.00;99.90
21115;DHT22;10715;48.546;9.896;2022-08-21T04:35:21;9.00;99.90
21115;DHT22;10715;48.546;9.896;2022-08-21T04:37:48;9.00;99.90
21115;DHT22;10715;48.546;9.896;2022-08-21T04:40:15;9.00;99.90
21115;DHT22;10715;48.546;9.896;2022-08-21T04:42:51;8.90;99.90
21115;DHT22;10715;48.546;9.896;2022-08-21T04:45:40;8.90;99.90
21115;DHT22;10715;48.546;9.896;2022-08-21T04:48:08;8.90;99.90
21115;DHT22;10715;48.546;9.896;2022-08-21T04:53:08;9.00;99.90
21115;DHT22;10715;48.546;9.896;2022-08-21T04:55:35;9.00;99.90
21115;DHT22;10715;48.546;9.896;2022-08-21T04:58:05;9.10;99.90
21115;DHT22;10715;48.546;9.896;2022-08-21T05:00:31;9.10;99.90
21115;DHT22;10715;48.546;9.896;2022-08-21T05:02:57;9.20;99.90
21115;DHT22;10715;48.546;9.896;2022-08-21T05:05:25;9.30;99.90
21115;DHT22;10715;48.546;9.896;2022-08-21T05:07:53;9.50;99.90
21115;DHT22;10715;48.546;9.896;2022-08-21T05:10:19;9.70;99.90
21115;DHT22;10715;48.546;9.896;2022-08-21T05:12:45;10.10;99.90
21115;DHT22;10715;48.546;9.896;2022-08-21T05:15:13;10.60;99.90
21115;DHT22;10715;48.546;9.896;2022-08-21T05:17:40;11.10;99.90
21115;DHT22;10715;48.546;9.896;2022-08-21T05:20:07;11.80;99.90
21115;DHT22;10715;48.546;9.896;2022-08-21T05:22:33;12.60;99.90
21115;DHT22;10715;48.546;9.896;2022-08-21T05:24:59;13.40;99.90
21115;DHT22;10715;48.546;9.896;2022-08-21T05:27:25;14.20;99.90
21115;DHT22;10715;48.546;9.896;2022-08-21T05:30:07;14.80;99.90
21115;DHT22;10715;48.546;9.896;2022-08-21T05:32:35;15.70;99.90
21115;DHT22;10715;48.546;9.896;2022-08-21T05:35:01;16.30;99.90
21115;DHT22;10715;48.546;9.896;2022-08-21T05:37:27;16.80;99.90
21115;DHT22;10715;48.546;9.896;2022-08-21T05:39:53;17.00;99.90
21115;DHT22;10715;48.546;9.896;2022-08-21T05:42:18;17.10;99.90
21115;DHT22;10715;48.546;9.896;2022-08-21T05:44:44;17.80;99.90
21115;DHT22;10715;48.546;9.896;2022-08-21T05:47:11;18.10;99.90
21115;DHT22;10715;48.546;9.896;2022-08-21T05:49:37;18.70;99.90
21115;DHT22;10715;48.546;9.896;2022-08-21T05:52:04;18.90;99.90
21115;DHT22;10715;48.546;9.896;2022-08-21T05:54:30;19.30;99.90
21115;DHT22;10715;48.546;9.896;2022-08-21T05:56:56;19.70;99.90
21115;DHT22;10715;48.546;9.896;2022-08-21T05:59:22;20.30;99.90
21115;DHT22;10715;48.546;9.896;2022-08-21T06:01:48;21.20;99.90
21115;DHT22;10715;48.546;9.896;2022-08-21T06:04:14;22.10;99.90
21115;DHT22;10715;48.546;9.896;2022-08-21T06:06:40;22.30;99.90
21115;DHT22;10715;48.546;9.896;2022-08-21T06:09:06;23.00;99.90
21115;DHT22;10715;48.546;9.896;2022-08-21T06:11:32;23.40;99.90
21115;DHT22;10715;48.546;9.896;2022-08-21T06:13:58;23.40;99.90
21115;DHT22;10715;48.546;9.896;2022-08-21T06:16:25;22.80;99.90
21115;DHT22;10715;48.546;9.896;2022-08-21T06:18:51;21.80;99.90
21115;DHT22;10715;48.546;9.896;2022-08-21T06:21:18;20.70;99.90
21115;DHT22;10715;48.546;9.896;2022-08-21T06:23:44;19.60;99.90
21115;DHT22;10715;48.546;9.896;2022-08-21T06:26:12;18.80;99.90
21115;DHT22;10715;48.546;9.896;2022-08-21T06:28:37;18.20;99.90
21115;DHT22;10715;48.546;9.896;2022-08-21T06:31:19;17.60;99.90
21115;DHT22;10715;48.546;9.896;2022-08-21T06:33:45;17.20;99.90
21115;DHT22;10715;48.546;9.896;2022-08-21T06:36:11;17.00;99.90
21115;DHT22;10715;48.546;9.896;2022-08-21T06:38:37;16.80;99.90
21115;DHT22;10715;48.546;9.896;2022-08-21T06:41:04;16.50;99.90
21115;DHT22;10715;48.546;9.896;2022-08-21T06:43:30;16.40;99.90
21115;DHT22;10715;48.546;9.896;2022-08-21T06:45:55;16.30;99.90
21115;DHT22;10715;48.546;9.896;2022-08-21T06:48:21;16.10;99.90
21115;DHT22;10715;48.546;9.896;2022-08-21T06:50:47;16.00;99.90
21115;DHT22;10715;48.546;9.896;2022-08-21T06:53:16;16.00;99.90
21115;DHT22;10715;48.546;9.896;2022-08-21T06:55:43;16.00;99.90
21115;DHT22;10715;48.546;9.896;2022-08-21T06:58:09;16.00;99.90
21115;DHT22;10715;48.546;9.896;2022-08-21T07:00:39;16.00;99.90
21115;DHT22;10715;48.546;9.896;2022-08-21T07:03:05;16.10;99.90
21115;DHT22;10715;48.546;9.896;2022-08-21T07:05:31;16.10;99.90
21115;DHT22;10715;48.546;9.896;2022-08-21T07:07:57;16.20;99.90
21115;DHT22;10715;48.546;9.896;2022-08-21T07:10:24;16.20;99.90
21115;DHT22;10715;48.546;9.896;2022-08-21T07:12:50;16.30;99.90
21115;DHT22;10715;48.546;9.896;2022-08-21T07:15:18;16.40;99.90
21115;DHT22;10715;48.546;9.896;2022-08-21T07:17:43;16.50;99.90
21115;DHT22;10715;48.546;9.896;2022-08-21T07:20:09;16.60;99.90
21115;DHT22;10715;48.546;9.896;2022-08-21T07:22:36;16.70;99.90
21115;DHT22;10715;48.546;9.896;2022-08-21T07:25:03;16.90;99.90
21115;DHT22;10715;48.546;9.896;2022-08-21T07:27:29;17.00;99.90
21115;DHT22;10715;48.546;9.896;2022-08-21T07:29:56;17.10;99.90
21115;DHT22;10715;48.546;9.896;2022-08-21T07:32:21;17.20;99.90
21115;DHT22;10715;48.546;9.896;2022-08-21T07:34:47;17.30;99.90
21115;DHT22;10715;48.546;9.896;2022-08-21T07:37:13;17.40;99.90
21115;DHT22;10715;48.546;9.896;2022-08-21T07:39:39;17.50;99.90
21115;DHT22;10715;48.546;9.896;2022-08-21T07:42:04;17.70;99.90
21115;DHT22;10715;48.546;9.896;2022-08-21T07:44:30;17.80;99.90
21115;DHT22;10715;48.546;9.896;2022-08-21T07:46:56;18.00;99.90
21115;DHT22;10715;48.546;9.896;2022-08-21T07:49:22;18.20;99.90
21115;DHT22;10715;48.546;9.896;2022-08-21T07:51:47;18.40;99.90
21115;DHT22;10715;48.546;9.896;2022-08-21T07:54:13;18.60;99.90
21115;DHT22;10715;48.546;9.896;2022-08-21T07:56:39;19.00;99.90
21115;DHT22;10715;48.546;9.896;2022-08-21T07:59:04;19.60;99.90
21115;DHT22;10715;48.546;9.896;2022-08-21T08:01:30;20.30;99.90
21115;DHT22;10715;48.546;9.896;2022-08-21T08:03:56;21.40;99.90
21115;DHT22;10715;48.546;9.896;2022-08-21T08:06:22;23.00;99.90
21115;DHT22;10715;48.546;9.896;2022-08-21T08:08:48;24.80;99.90
21115;DHT22;10715;48.546;9.896;2022-08-21T08:11:14;25.90;99.90
21115;DHT22;10715;48.546;9.896;2022-08-21T08:13:49;27.40;99.90
21115;DHT22;10715;48.546;9.896;2022-08-21T08:16:16;28.80;95.90
21115;DHT22;10715;48.546;9.896;2022-08-21T08:18:41;30.10;92.50
21115;DHT22;10715;48.546;9.896;2022-08-21T08:21:08;31.00;83.20
21115;DHT22;10715;48.546;9.896;2022-08-21T08:23:34;31.90;80.10
21115;DHT22;10715;48.546;9.896;2022-08-21T08:26:00;32.50;72.60
21115;DHT22;10715;48.546;9.896;2022-08-21T08:28:28;32.80;69.40
21115;DHT22;10715;48.546;9.896;2022-08-21T08:30:54;33.00;65.10
21115;DHT22;10715;48.546;9.896;2022-08-21T08:33:21;33.20;64.90
21115;DHT22;10715;48.546;9.896;2022-08-21T08:35:48;33.40;63.50
21115;DHT22;10715;48.546;9.896;2022-08-21T08:38:15;33.80;61.90
21115;DHT22;10715;48.546;9.896;2022-08-21T08:40:56;34.30;58.90
21115;DHT22;10715;48.546;9.896;2022-08-21T08:43:27;34.60;57.80
21115;DHT22;10715;48.546;9.896;2022-08-21T08:45:56;34.90;55.40
21115;DHT22;10715;48.546;9.896;2022-08-21T08:48:41;35.20;52.90
21115;DHT22;10715;48.546;9.896;2022-08-21T08:51:32;35.00;53.70
21115;DHT22;10715;48.546;9.896;2022-08-21T08:54:07;34.80;52.50
21115;DHT22;10715;48.546;9.896;2022-08-21T08:56:34;35.10;53.50
21115;DHT22;10715;48.546;9.896;2022-08-21T08:59:16;35.50;53.20
21115;DHT22;10715;48.546;9.896;2022-08-21T09:01:43;35.80;51.50
21115;DHT22;10715;48.546;9.896;2022-08-21T09:04:10;36.00;52.10
21115;DHT22;10715;48.546;9.896;2022-08-21T09:17:24;36.80;50.20
21115;DHT22;10715;48.546;9.896;2022-08-21T09:25:21;37.40;46.40
21115;DHT22;10715;48.546;9.896;2022-08-21T09:27:48;37.50;46.30
21115;DHT22;10715;48.546;9.896;2022-08-21T09:30:15;37.90;45.90
21115;DHT22;10715;48.546;9.896;2022-08-21T09:32:41;37.90;46.80
21115;DHT22;10715;48.546;9.896;2022-08-21T09:35:12;38.10;45.80
21115;DHT22;10715;48.546;9.896;2022-08-21T09:37:54;38.40;45.70
21115;DHT22;10715;48.546;9.896;2022-08-21T09:40:37;38.50;44.60
21115;DHT22;10715;48.546;9.896;2022-08-21T09:45:33;39.30;44.50
21115;DHT22;10715;48.546;9.896;2022-08-21T09:48:22;39.30;40.30
21115;DHT22;10715;48.546;9.896;2022-08-21T09:50:50;38.70;43.60
21115;DHT22;10715;48.546;9.896;2022-08-21T09:58:36;39.20;42.70
21115;DHT22;10715;48.546;9.896;2022-08-21T10:01:05;39.50;40.50
21115;DHT22;10715;48.546;9.896;2022-08-21T10:03:34;39.80;41.40
21115;DHT22;10715;48.546;9.896;2022-08-21T10:06:06;39.90;41.50
21115;DHT22;10715;48.546;9.896;2022-08-21T10:08:36;39.50;40.30
21115;DHT22;10715;48.546;9.896;2022-08-21T10:11:23;39.50;39.90
21115;DHT22;10715;48.546;9.896;2022-08-21T10:16:38;39.70;39.80
21115;DHT22;10715;48.546;9.896;2022-08-21T10:19:30;39.30;38.60
21115;DHT22;10715;48.546;9.896;2022-08-21T10:22:24;39.50;40.10
21115;DHT22;10715;48.546;9.896;2022-08-21T10:34:06;41.20;38.00
21115;DHT22;10715;48.546;9.896;2022-08-21T10:36:28;40.90;35.70
21115;DHT22;10715;48.546;9.896;2022-08-21T10:55:23;40.10;37.30
21115;DHT22;10715;48.546;9.896;2022-08-21T10:57:56;40.50;38.70
21115;DHT22;10715;48.546;9.896;2022-08-21T11:00:26;40.70;37.10
21115;DHT22;10715;48.546;9.896;2022-08-21T11:03:20;40.60;36.70
21115;DHT22;10715;48.546;9.896;2022-08-21T11:05:52;40.50;35.90
21115;DHT22;10715;48.546;9.896;2022-08-21T11:08:43;40.30;37.30
21115;DHT22;10715;48.546;9.896;2022-08-21T11:11:32;39.50;36.40
21115;DHT22;10715;48.546;9.896;2022-08-21T11:17:14;39.30;38.30
21115;DHT22;10715;48.546;9.896;2022-08-21T11:20:03;40.20;37.50
21115;DHT22;10715;48.546;9.896;2022-08-21T11:27:52;38.20;38.70
21115;DHT22;10715;48.546;9.896;2022-08-21T11:30:19;35.30;42.70
21115;DHT22;10715;48.546;9.896;2022-08-21T11:33:31;32.60;47.30
21115;DHT22;10715;48.546;9.896;2022-08-21T11:36:06;31.30;48.40
21115;DHT22;10715;48.546;9.896;2022-08-21T11:38:40;30.60;49.40
21115;DHT22;10715;48.546;9.896;2022-08-21T11:41:37;29.40;48.90
21115;DHT22;10715;48.546;9.896;2022-08-21T11:47:03;27.00;54.90
21115;DHT22;10715;48.546;9.896;2022-08-21T11:50:05;26.20;54.90
21115;DHT22;10715;48.546;9.896;2022-08-21T11:52:38;25.90;59.10
21115;DHT22;10715;48.546;9.896;2022-08-21T11:55:40;25.90;58.90
21115;DHT22;10715;48.546;9.896;2022-08-21T12:00:42;26.00;59.10
21115;DHT22;10715;48.546;9.896;2022-08-21T12:03:14;26.10;58.50
21115;DHT22;10715;48.546;9.896;2022-08-21T12:05:44;26.10;59.80
21115;DHT22;10715;48.546;9.896;2022-08-21T12:08:46;26.00;59.80
21115;DHT22;10715;48.546;9.896;2022-08-21T12:11:24;25.80;60.80
21115;DHT22;10715;48.546;9.896;2022-08-21T12:16:38;25.70;61.00
21115;DHT22;10715;48.546;9.896;2022-08-21T12:19:10;25.70;62.90
21115;DHT22;10715;48.546;9.896;2022-08-21T12:26:58;25.50;59.40
21115;DHT22;10715;48.546;9.896;2022-08-21T12:29:31;25.20;61.60
21115;DHT22;10715;48.546;9.896;2022-08-21T12:31:59;25.00;61.40
21115;DHT22;10715;48.546;9.896;2022-08-21T12:34:37;24.70;61.10
21115;DHT22;10715;48.546;9.896;2022-08-21T12:37:16;24.50;62.10
21115;DHT22;10715;48.546;9.896;2022-08-21T12:39:48;24.40;61.90
21115;DHT22;10715;48.546;9.896;2022-08-21T12:42:17;24.30;61.60
21115;DHT22;10715;48.546;9.896;2022-08-21T12:44:56;24.30;63.40
21115;DHT22;10715;48.546;9.896;2022-08-21T12:47:34;24.40;61.70
21115;DHT22;10715;48.546;9.896;2022-08-21T12:50:11;24.50;64.20
21115;DHT22;10715;48.546;9.896;2022-08-21T12:53:08;24.60;62.30
21115;DHT22;10715;48.546;9.896;2022-08-21T12:55:40;24.70;61.90
21115;DHT22;10715;48.546;9.896;2022-08-21T12:58:06;24.80;61.00
21115;DHT22;10715;48.546;9.896;2022-08-21T13:00:49;24.80;61.70
21115;DHT22;10715;48.546;9.896;2022-08-21T13:03:15;24.80;61.70
21115;DHT22;10715;48.546;9.896;2022-08-21T13:05:41;24.90;61.50
21115;DHT22;10715;48.546;9.896;2022-08-21T13:08:09;24.90;62.20
21115;DHT22;10715;48.546;9.896;2022-08-21T13:10:36;24.90;60.90
21115;DHT22;10715;48.546;9.896;2022-08-21T13:13:06;24.90;61.30
21115;DHT22;10715;48.546;9.896;2022-08-21T13:15:35;24.90;62.30
21115;DHT22;10715;48.546;9.896;2022-08-21T13:18:04;24.90;62.20
21115;DHT22;10715;48.546;9.896;2022-08-21T13:20:36;24.80;61.60
21115;DHT22;10715;48.546;9.896;2022-08-21T13:23:15;24.60;63.60
21115;DHT22;10715;48.546;9.896;2022-08-21T13:25:41;24.40;61.50
21115;DHT22;10715;48.546;9.896;2022-08-21T13:28:09;24.50;61.50
21115;DHT22;10715;48.546;9.896;2022-08-21T13:30:43;24.60;61.50
21115;DHT22;10715;48.546;9.896;2022-08-21T13:33:12;24.80;60.20
21115;DHT22;10715;48.546;9.896;2022-08-21T13:38:27;25.10;59.40
21115;DHT22;10715;48.546;9.896;2022-08-21T13:40:56;25.30;59.80
21115;DHT22;10715;48.546;9.896;2022-08-21T13:43:28;25.10;57.80
21115;DHT22;10715;48.546;9.896;2022-08-21T13:45:56;25.20;57.60
21115;DHT22;10715;48.546;9.896;2022-08-21T13:48:24;25.30;57.80
21115;DHT22;10715;48.546;9.896;2022-08-21T13:50:52;25.50;58.30
21115;DHT22;10715;48.546;9.896;2022-08-21T13:53:43;25.70;57.00
21115;DHT22;10715;48.546;9.896;2022-08-21T13:56:31;25.80;58.40
21115;DHT22;10715;48.546;9.896;2022-08-21T13:58:59;25.80;58.20
21115;DHT22;10715;48.546;9.896;2022-08-21T14:01:30;25.70;59.10
21115;DHT22;10715;48.546;9.896;2022-08-21T14:04:04;25.70;58.60
21115;DHT22;10715;48.546;9.896;2022-08-21T14:06:35;25.60;59.10
21115;DHT22;10715;48.546;9.896;2022-08-21T14:09:12;25.60;60.70
21115;DHT22;10715;48.546;9.896;2022-08-21T14:11:38;25.60;59.20
21115;DHT22;10715;48.546;9.896;2022-08-21T14:14:22;25.40;59.20
21115;DHT22;10715;48.546;9.896;2022-08-21T14:19:38;25.50;59.30
21115;DHT22;10715;48.546;9.896;2022-08-21T14:22:36;25.60;59.70
21115;DHT22;10715;48.546;9.896;2022-08-21T14:30:40;25.50;58.10
21115;DHT22;10715;48.546;9.896;2022-08-21T14:33:10;25.40;59.90
21115;DHT22;10715;48.546;9.896;2022-08-21T14:35:37;25.30;61.70
21115;DHT22;10715;48.546;9.896;2022-08-21T14:38:22;25.40;61.20
21115;DHT22;10715;48.546;9.896;2022-08-21T14:40:55;25.50;59.70
21115;DHT22;10715;48.546;9.896;2022-08-21T14:43:22;25.50;59.30
21115;DHT22;10715;48.546;9.896;2022-08-21T14:45:48;25.40;58.90
21115;DHT22;10715;48.546;9.896;2022-08-21T14:48:15;25.40;59.90
21115;DHT22;10715;48.546;9.896;2022-08-21T14:50:41;25.50;60.40
21115;DHT22;10715;48.546;9.896;2022-08-21T14:53:06;25.50;59.70
21115;DHT22;10715;48.546;9.896;2022-08-21T14:55:32;25.60;59.60
21115;DHT22;10715;48.546;9.896;2022-08-21T14:58:21;25.60;59.70
21115;DHT22;10715;48.546;9.896;2022-08-21T15:00:49;25.60;59.50
21115;DHT22;10715;48.546;9.896;2022-08-21T15:03:16;25.50;59.20
21115;DHT22;10715;48.546;9.896;2022-08-21T15:05:41;25.40;59.40
21115;DHT22;10715;48.546;9.896;2022-08-21T15:08:07;25.40;59.40
21115;DHT22;10715;48.546;9.896;2022-08-21T15:10:34;25.30;59.90
21115;DHT22;10715;48.546;9.896;2022-08-21T15:13:01;25.30;60.60
21115;DHT22;10715;48.546;9.896;2022-08-21T15:15:28;25.20;59.80
21115;DHT22;10715;48.546;9.896;2022-08-21T15:17:54;25.20;58.90
21115;DHT22;10715;48.546;9.896;2022-08-21T15:20:19;25.20;60.20
21115;DHT22;10715;48.546;9.896;2022-08-21T15:22:45;25.10;59.90
21115;DHT22;10715;48.546;9.896;2022-08-21T15:25:11;25.10;59.00
21115;DHT22;10715;48.546;9.896;2022-08-21T15:27:37;25.00;62.70
21115;DHT22;10715;48.546;9.896;2022-08-21T15:30:03;24.90;61.60
21115;DHT22;10715;48.546;9.896;2022-08-21T15:32:29;24.80;61.60
21115;DHT22;10715;48.546;9.896;2022-08-21T15:34:57;24.80;63.10
21115;DHT22;10715;48.546;9.896;2022-08-21T15:37:23;24.70;62.80
21115;DHT22;10715;48.546;9.896;2022-08-21T15:39:50;24.60;61.70
21115;DHT22;10715;48.546;9.896;2022-08-21T15:42:17;24.60;62.00
21115;DHT22;10715;48.546;9.896;2022-08-21T15:44:44;24.50;62.80
21115;DHT22;10715;48.546;9.896;2022-08-21T15:47:20;24.40;63.10
21115;DHT22;10715;48.546;9.896;2022-08-21T15:49:46;24.30;63.50
21115;DHT22;10715;48.546;9.896;2022-08-21T15:52:13;24.20;62.60
21115;DHT22;10715;48.546;9.896;2022-08-21T15:54:39;24.20;64.00
21115;DHT22;10715;48.546;9.896;2022-08-21T15:57:05;24.10;63.00
21115;DHT22;10715;48.546;9.896;2022-08-21T15:59:39;24.00;63.40
21115;DHT22;10715;48.546;9.896;2022-08-21T16:02:15;23.90;63.30
21115;DHT22;10715;48.546;9.896;2022-08-21T16:04:42;23.80;64.40
21115;DHT22;10715;48.546;9.896;2022-08-21T16:07:08;23.80;63.90
21115;DHT22;10715;48.546;9.896;2022-08-21T16:09:34;23.70;63.20
21115;DHT22;10715;48.546;9.896;2022-08-21T16:12:01;23.60;64.40
21115;DHT22;10715;48.546;9.896;2022-08-21T16:14:28;23.50;65.10
21115;DHT22;10715;48.546;9.896;2022-08-21T16:16:54;23.50;65.30
21115;DHT22;10715;48.546;9.896;2022-08-21T16:19:20;23.40;65.60
21115;DHT22;10715;48.546;9.896;2022-08-21T16:21:46;23.30;66.00
21115;DHT22;10715;48.546;9.896;2022-08-21T16:24:12;23.30;66.60
21115;DHT22;10715;48.546;9.896;2022-08-21T16:26:38;23.20;66.70
21115;DHT22;10715;48.546;9.896;2022-08-21T16:29:04;23.20;67.20
21115;DHT22;10715;48.546;9.896;2022-08-21T16:31:32;23.10;67.00
21115;DHT22;10715;48.546;9.896;2022-08-21T16:33:59;23.00;67.10
21115;DHT22;10715;48.546;9.896;2022-08-21T16:36:26;23.00;65.60
21115;DHT22;10715;48.546;9.896;2022-08-21T16:38:53;22.90;62.40
21115;DHT22;10715;48.546;9.896;2022-08-21T16:41:21;22.80;65.20
21115;DHT22;10715;48.546;9.896;2022-08-21T16:43:49;22.70;67.60
21115;DHT22;10715;48.546;9.896;2022-08-21T16:46:16;22.60;69.20
21115;DHT22;10715;48.546;9.896;2022-08-21T16:48:42;22.50;69.30
21115;DHT22;10715;48.546;9.896;2022-08-21T16:51:13;22.50;67.10
21115;DHT22;10715;48.546;9.896;2022-08-21T16:53:39;22.40;69.30
21115;DHT22;10715;48.546;9.896;2022-08-21T16:56:05;22.30;71.30
21115;DHT22;10715;48.546;9.896;2022-08-21T16:58:35;22.10;70.60
21115;DHT22;10715;48.546;9.896;2022-08-21T17:01:06;22.00;69.70
21115;DHT22;10715;48.546;9.896;2022-08-21T17:03:36;21.90;70.70
21115;DHT22;10715;48.546;9.896;2022-08-21T17:06:04;21.80;71.40
21115;DHT22;10715;48.546;9.896;2022-08-21T17:08:29;21.70;72.30
21115;DHT22;10715;48.546;9.896;2022-08-21T17:10:56;21.50;73.20
21115;DHT22;10715;48.546;9.896;2022-08-21T17:13:24;21.30;74.10